Timothy Hazard

Scout - KV Mechelen
20 Feb 2028
Sunday
Process

Personality

Adaptability (15) Ambition (17) Controversy (2) Loyalty (13) Pressure (6) Professionalism (15) Sportsmanship (11) Temperament (6)

Profile

Coaching Style Democratic
License Continental A
Determination 6
Man Management 7
Motivating 12
Discipline 5
Job Satisfaction
100%
Fatigue
0%
Role Scout
Wage 74.6K p/w
Contract 14.03.2029

Performance

Behaviour Good
Training Effectiveness
38%
Player Development
50%
Injury Prevention
65%
Tactical Implementation
30%

Recent Events

Recommended a transfer target now
Recommended a transfer target now
Recommended a transfer target now
Recommended a transfer target now
Recommended a transfer target now
Assessed a player now
Assessed a player now
Assessed a player now

Currently Monitoring

143
Player Club Status Ability Confidence Watched Last Observed Latest Vote
Josh Nichols Tranmere Rovers Active 122 / 123 40% 3 19.02.2028 -
Noam Obougou Jacquet Le Havre AC Active 113 / 125 40% 1 19.02.2028 -
Jake Evans Colchester United Active 108 / 122 40% 1 19.02.2028 -
Enzo Koffi Le Havre AC Active 116 / 122 40% 2 18.02.2028 -
Ryan McAidoo Gillingham Active 122 / 131 40% 1 18.02.2028 -
Lucas Høgsberg RC Strasbourg Active 141 / 141 40% 1 18.02.2028 -
Archie Gray Derby County Active 152 / 156 40% 1 17.02.2028 -
Rudy Matondo AC Ajaccio Active 107 / 123 40% 1 17.02.2028 -
Andrija Bulatović RC Lens Active 128 / 134 40% 1 17.02.2028 -
Dmitry Pestryakov Dinamo Moscow Active 118 / 125 40% 1 16.02.2028 -
Khalis Merah Toulouse FC Active 133 / 138 40% 1 16.02.2028 -
Trey Nyoni Rotherham United Active 138 / 139 40% 1 16.02.2028 -
Jofre Torrents Ajax Active 130 / 132 40% 11 15.02.2028 -
Avery Appiah Ajax Active 119 / 128 40% 3 15.02.2028 -
Héctor Fort Real Sociedad Active 139 / 145 40% 1 15.02.2028 -
Senny Mayulu Paris Saint-Germain Active 150 / 155 40% 1 14.02.2028 -
Pablo García Racing Santander Active 134 / 132 40% 1 14.02.2028 -
Nhoa Sangui Chamois Niortais Active 129 / 133 40% 2 12.02.2028 -
Ben Broggio Grimsby Town Active 111 / 110 40% 1 11.02.2028 -
Malick Djiguiba AS Korofina Active 99 / 104 40% 1 11.02.2028 -
Pape Diong Westerlo Active 116 / 131 40% 1 10.02.2028 -
Gabe Forsyth Crawley Town Active 109 / 113 40% 1 10.02.2028 -
Nicolas Verkooijen PSV Active 115 / 123 40% 2 09.02.2028 -
Kerim Alajbegović Modena Active 133 / 141 40% 1 09.02.2028 -
Themba Dala Ajax Cape Town Active 128 / 128 40% 1 08.02.2028 -
Soriba Diaoune AC Ajaccio Active 127 / 128 40% 1 08.02.2028 -
Noah Tamsamani Vitesse Active 101 / 104 40% 1 08.02.2028 -
Ronan Kpakio Cardiff City Active 120 / 126 40% 1 07.02.2028 -
Sam Amo-Ameyaw RC Strasbourg Active 133 / 133 40% 1 07.02.2028 -
Prince Adu Kwabena Standard Liege Active 131 / 133 83% 1 31.01.2028 Approve
Max Dean Standard Liege Active 118 / 117 83% 1 24.01.2028 Approve
Ryan Fosso Standard Liege Active 127 / 119 83% 1 10.01.2028 Approve
Mao Hosoya Everton Negotiating 134 / 135 90% 1 01.01.2028 Approve
Louis Leroux FC Nantes Active 132 / 138 40% 1 31.12.2027 -
Thibaud Sergeant Zulte Waregem Active 98 / 101 30% 1 / 1m 24.11.2027 -
Mateo Silvetti Los Angeles Football Club Active 134 / 121 40% 1 02.09.2027 -
Sebastián Ramírez Jaguares Active 113 / 107 40% 1 02.09.2027 -
Tiziano Cabrera Central Norte Active 88 / 91 40% 1 02.09.2027 -
Elías Santini Zulte Waregem Active 99 / 104 42% 1 / 1m 25.08.2027 -
Chineme Chinonso Ikorodu City Active 90 / 101 40% 1 11.08.2027 -
Luke Baartman ES Mostaganem Active 102 / 109 40% 1 11.08.2027 -
Adama Goïta Remo Stars Active 95 / 105 40% 1 11.08.2027 -
Othmane Maamma Watford Active 131 / 127 40% 8 08.06.2027 -
Mfundo Vilakazi Kaizer Chiefs Active 119 / 124 40% 1 08.06.2027 -
Martim Cunha Porto Active 97 / 106 40% 1 02.06.2027 -
Adam Bakoune Ospitaletto Active 93 / 105 40% 1 02.06.2027 -
Davide Bartesaghi AC Milan Active 130 / 136 40% 3 01.06.2027 -
Pedro de la Vega FC Dallas Active 133 / 134 66% 1 01.06.2027 Approve
Finley McAllister Grimsby Town Active 88 / 98 40% 1 01.06.2027 -
Josh King Chelsea Active 143 / 145 40% 4 31.05.2027 -
Caleb Yirenkyi Coventry City Active 135 / 142 40% 3 31.05.2027 -
Percy Jali Free State Stars Active 93 / 106 40% 3 31.05.2027 -
Stanley Mills Oxford United Active 120 / 120 40% 6 29.05.2027 -
Kasey McAteer Ipswich Town Active 130 / 129 40% 1 29.05.2027 -
Jack McGlynn Stoke City Active 129 / 132 40% 3 28.05.2027 -
Finn Azaz Southampton Active 129 / 126 40% 4 27.05.2027 -
Florentino Luís Ipswich Town Active 145 / 142 40% 3 27.05.2027 -
Derry Murkin Derby County Active 126 / 127 40% 2 26.05.2027 -
Jason Knight Bristol City Active 129 / 130 40% 2 26.05.2027 -
Kwadwo Baah Watford Active 126 / 123 40% 2 24.05.2027 -
Scott Twine Bristol City Active 131 / 124 40% 1 24.05.2027 -
Zane Albarus Cambridge United Active 92 / 104 40% 1 24.05.2027 -
Christ Inao Oulaï Fiorentina Active 137 / 140 40% 1 23.05.2027 -
Cian Ashford Cardiff City Active 113 / 120 40% 5 21.05.2027 -
Amine Adli Bournemouth Active 149 / 146 40% 2 21.05.2027 -
Georginio Rutter Brighton Active 153 / 145 40% 4 21.05.2027 -
Isaiah Jones Luton Town Active 129 / 121 40% 7 19.05.2027 -
Ethan Galbraith Swansea City Active 130 / 130 40% 1 19.05.2027 -
Dylan Lawlor Cardiff City Active 120 / 121 40% 4 17.05.2027 -
Matt O'Riley Brighton Active 146 / 143 40% 3 17.05.2027 -
Matvey Kislyak CSKA Moscow Active 138 / 141 40% 4 16.05.2027 -
Massien Ghaddari Utrecht Active 105 / 113 40% 2 16.05.2027 -
Thijs Kraaijeveld Feyenoord Active 111 / 119 40% 1 15.05.2027 -
Jack Diamond Stockport County Active 118 / 112 40% 1 12.05.2027 -
Max Bird Birmingham Active 129 / 126 40% 3 11.05.2027 -
Nicolò Cambiaghi Bologna Active 146 / 140 40% 1 10.05.2027 -
Welington Southampton Active 130 / 125 40% 1 10.05.2027 -
Latrell Aken Groningen Active 104 / 110 40% 2 09.05.2027 -
Giacomo Raspadori Atalanta Active 148 / 149 40% 3 08.05.2027 -
Kevin Fulham Active 148 / 151 40% 3 06.05.2027 -
Ethan Williams Peterborough United Active 117 / 113 40% 3 05.05.2027 -
Derensili Sanches Fernandes Huddersfield Town Active 131 / 128 40% 3 03.05.2027 -
Morgan Whittaker Middlesbrough Active 135 / 133 40% 4 01.05.2027 -
Tom Fellows Southampton Active 137 / 131 40% 4 01.05.2027 -
Keagan Tau Ajax Cape Town Active 93 / 97 40% 3 24.04.2027 -
Karim Coulibaly RC Strasbourg Active 121 / 134 40% 2 24.04.2027 -
Gonçalo Oliveira Benfica Active 111 / 116 40% 1 23.04.2027 -
Daniel Costa Sporting CP Active 93 / 107 40% 1 23.04.2027 -
Adriano Bertaccini Anderlecht Active 124 / 126 40% 1 20.04.2027 -
Ilyas Ansah Hull City Active 130 / 134 40% 1 18.04.2027 -
Jan Bürger Gillingham Active 113 / 122 40% 3 16.04.2027 -
David Ozoh Derby County Active 118 / 131 40% 4 16.04.2027 -
Arsene Mekila Gazelle Garoua Active 78 / 88 40% 1 16.04.2027 -
Emirhan Başyiğit Sivasspor Active 103 / 110 40% 1 12.04.2027 -
Carlos Vicente Birmingham Active 143 / 136 40% 1 09.04.2027 -
Tshepang Moremi Orlando Pirates Active 121 / 120 40% 2 07.04.2027 -
Quinten Timber Crystal Palace Active 146 / 148 40% 1 07.04.2027 -
Matías Gómez Granada Active 109 / 124 40% 1 05.03.2027 -
Joel McGregor Swindon Town Active 88 / 97 40% 1 05.03.2027 -
Sascha Britschgi Padova Active 120 / 131 40% 1 05.03.2027 -
Hlompho Lorch Ajax Cape Town Active 101 / 107 40% 1 04.03.2027 -
Riley Owen Trento Active 105 / 106 40% 3 26.02.2027 -
Mohamed Moussa Koïta Djoliba Active 98 / 96 40% 1 26.02.2027 -
Daniel Vernattus Metalist Active 91 / 90 40% 1 21.02.2027 -
Ernie Weaver AFC Wimbledon Active 111 / 114 40% 1 21.02.2027 -
Christos Mouzakitis Hull City Active 129 / 141 40% 3 17.02.2027 -
Tyler Fredricson Oldham Athletic Active 99 / 107 40% 1 17.02.2027 -
James Dornelly Peterborough United Active 101 / 110 40% 1 12.02.2027 -
Richard Noël AS Nancy Active 97 / 101 40% 1 12.02.2027 -
Hamish Douglas Grimsby Town Active 97 / 98 40% 1 08.02.2027 -
Cheveyo Tsawa Club Brugge Active 111 / 121 40% 2 02.02.2027 -
Frédérique Dawaï Cotonsport Garoua Active 84 / 83 40% 1 02.02.2027 -
Yehor Yarmoliuk Brentford Active 143 / 154 40% 2 31.12.2026 -
Jan Virgili Club Brugge Active 130 / 134 40% 9 30.12.2026 -
Malick Fofana Sunderland Active 140 / 148 40% 1 30.12.2026 -
Kauã Elias Anderlecht Active 130 / 136 40% 3 29.12.2026 -
Severin Nioule Charleroi Active 105 / 104 40% 3 29.12.2026 -
Wiebe Kooistra Cambuur Active 96 / 111 40% 1 28.12.2026 -
Tristan Degreef Anderlecht Active 132 / 122 40% 5 23.12.2026 -
Tibe De Vlieger KAA Gent Active 108 / 106 40% 3 17.12.2026 -
Mandla Erasmus SuperSport United Active 121 / 117 40% 1 13.12.2026 -
Tadjidine Mmadi Olympique de Marseille Active 86 / 99 40% 1 12.12.2026 -
Giovanni Haag Cardiff City Active 119 / 119 40% 1 11.12.2026 -
Anel Ahmedhodžić Burnley Active 132 / 139 40% 1 11.12.2026 -
David Kalokoh Ajax Active 110 / 118 40% 4 09.12.2026 -
Kyriani Sabbe Club Brugge Active 126 / 124 40% 2 03.12.2026 -
Mamadou Diakhon Club Brugge Active 113 / 129 40% 3 02.12.2026 -
Ben Gannon Doak Bournemouth Active 140 / 142 40% 1 02.12.2026 -
Endrick Real Madrid Active 145 / 146 40% 1 26.11.2026 -
Nico O'Reilly Manchester City Active 154 / 154 40% 1 24.11.2026 -
Noah Sadiki Sunderland Active 146 / 151 40% 3 23.11.2026 -
Furkan Demir Rapid Wien Active 118 / 127 40% 1 23.11.2026 -
Joaquin Seys Club Brugge Active 124 / 134 40% 2 19.11.2026 -
Juan Velázquez Belgrano Active 116 / 123 40% 1 12.11.2026 -
Leonardo Lopes KAA Gent Active 111 / 112 40% 1 07.11.2026 -
Matisse Samoise KAA Gent Active 124 / 124 40% 1 07.11.2026 -
Ilay Camara Anderlecht Active 138 / 124 40% 1 07.11.2026 -
Aiham Ousou Charleroi Active 131 / 130 40% 1 05.11.2026 -
Junior Onana Zamalek Active 116 / 123 40% 1 05.11.2026 -
Tariq Lamptey Queens Park Rangers Active 128 / 131 40% 1 04.11.2026 -
Joel Ordóñez Club Brugge Active 123 / 133 40% 1 04.11.2026 -
Yaimar Medina Racing Genk Active 121 / 121 40% 1 03.11.2026 -
Japhet Tanganga Sheffield United Active 125 / 135 40% 1 02.11.2026 -